sensor_id;sensor_type;location;lat;lon;timestamp;temperature;humidity
6756;DHT22;3415;51.148;7.014;2023-04-03T00:00:21;0.90;1.00
6756;DHT22;3415;51.148;7.014;2023-04-03T00:02:48;0.80;1.00
6756;DHT22;3415;51.148;7.014;2023-04-03T00:05:15;0.80;1.00
6756;DHT22;3415;51.148;7.014;2023-04-03T00:07:41;0.70;1.00
6756;DHT22;3415;51.148;7.014;2023-04-03T00:10:09;0.70;1.00
6756;DHT22;3415;51.148;7.014;2023-04-03T00:12:37;0.70;1.00
6756;DHT22;3415;51.148;7.014;2023-04-03T00:15:05;0.60;1.00
6756;DHT22;3415;51.148;7.014;2023-04-03T00:17:32;0.60;1.00
6756;DHT22;3415;51.148;7.014;2023-04-03T00:19:58;0.60;1.00
6756;DHT22;3415;51.148;7.014;2023-04-03T00:22:25;0.60;1.00
6756;DHT22;3415;51.148;7.014;2023-04-03T00:24:54;0.60;1.00
6756;DHT22;3415;51.148;7.014;2023-04-03T00:27:21;0.60;1.00
6756;DHT22;3415;51.148;7.014;2023-04-03T00:29:49;0.60;1.00
6756;DHT22;3415;51.148;7.014;2023-04-03T00:32:16;0.60;1.00
6756;DHT22;3415;51.148;7.014;2023-04-03T00:34:42;0.60;1.00
6756;DHT22;3415;51.148;7.014;2023-04-03T00:37:09;0.60;1.00
6756;DHT22;3415;51.148;7.014;2023-04-03T00:39:36;0.50;1.00
6756;DHT22;3415;51.148;7.014;2023-04-03T00:42:03;0.50;1.00
6756;DHT22;3415;51.148;7.014;2023-04-03T00:47:35;0.40;1.00
6756;DHT22;3415;51.148;7.014;2023-04-03T00:50:02;0.40;1.00
6756;DHT22;3415;51.148;7.014;2023-04-03T00:52:30;0.40;1.00
6756;DHT22;3415;51.148;7.014;2023-04-03T00:55:00;0.40;1.00
6756;DHT22;3415;51.148;7.014;2023-04-03T00:57:29;0.50;1.00
6756;DHT22;3415;51.148;7.014;2023-04-03T01:00:00;0.40;1.00
6756;DHT22;3415;51.148;7.014;2023-04-03T01:02:28;0.40;1.00
6756;DHT22;3415;51.148;7.014;2023-04-03T01:04:56;0.40;1.00
6756;DHT22;3415;51.148;7.014;2023-04-03T01:07:26;0.40;1.00
6756;DHT22;3415;51.148;7.014;2023-04-03T01:09:57;0.40;1.00
6756;DHT22;3415;51.148;7.014;2023-04-03T01:12:26;0.40;1.00
6756;DHT22;3415;51.148;7.014;2023-04-03T01:14:54;0.30;1.00
6756;DHT22;3415;51.148;7.014;2023-04-03T01:17:29;0.30;1.00
6756;DHT22;3415;51.148;7.014;2023-04-03T01:23:30;0.30;1.00
6756;DHT22;3415;51.148;7.014;2023-04-03T01:25:59;0.30;1.00
6756;DHT22;3415;51.148;7.014;2023-04-03T01:28:28;0.30;1.00
6756;DHT22;3415;51.148;7.014;2023-04-03T01:31:00;0.30;1.00
6756;DHT22;3415;51.148;7.014;2023-04-03T01:33:30;0.30;1.00
6756;DHT22;3415;51.148;7.014;2023-04-03T01:35:57;0.30;1.00
6756;DHT22;3415;51.148;7.014;2023-04-03T01:38:24;0.30;1.00
6756;DHT22;3415;51.148;7.014;2023-04-03T01:40:51;0.30;1.00
6756;DHT22;3415;51.148;7.014;2023-04-03T01:43:18;0.40;1.00
6756;DHT22;3415;51.148;7.014;2023-04-03T01:45:45;0.50;1.00
6756;DHT22;3415;51.148;7.014;2023-04-03T01:48:14;0.50;1.00
6756;DHT22;3415;51.148;7.014;2023-04-03T01:50:42;0.50;1.00
6756;DHT22;3415;51.148;7.014;2023-04-03T01:53:09;0.50;1.00
6756;DHT22;3415;51.148;7.014;2023-04-03T01:55:36;0.50;1.00
6756;DHT22;3415;51.148;7.014;2023-04-03T01:58:03;0.50;1.00
6756;DHT22;3415;51.148;7.014;2023-04-03T02:00:30;0.50;1.00
6756;DHT22;3415;51.148;7.014;2023-04-03T02:02:57;0.50;1.00
6756;DHT22;3415;51.148;7.014;2023-04-03T02:05:23;0.50;1.00
6756;DHT22;3415;51.148;7.014;2023-04-03T02:07:52;0.60;1.00
6756;DHT22;3415;51.148;7.014;2023-04-03T02:10:19;0.60;1.00
6756;DHT22;3415;51.148;7.014;2023-04-03T02:12:46;0.50;1.00
6756;DHT22;3415;51.148;7.014;2023-04-03T02:17:39;0.50;1.00
6756;DHT22;3415;51.148;7.014;2023-04-03T02:20:07;0.50;1.00
6756;DHT22;3415;51.148;7.014;2023-04-03T02:22:35;0.50;1.00
6756;DHT22;3415;51.148;7.014;2023-04-03T02:25:03;0.40;1.00
6756;DHT22;3415;51.148;7.014;2023-04-03T02:27:30;0.40;1.00
6756;DHT22;3415;51.148;7.014;2023-04-03T02:29:57;0.40;1.00
6756;DHT22;3415;51.148;7.014;2023-04-03T02:32:24;0.30;1.00
6756;DHT22;3415;51.148;7.014;2023-04-03T02:34:51;0.30;1.00
6756;DHT22;3415;51.148;7.014;2023-04-03T02:37:18;0.30;1.00
6756;DHT22;3415;51.148;7.014;2023-04-03T02:39:44;0.30;1.00
6756;DHT22;3415;51.148;7.014;2023-04-03T02:42:13;0.30;1.00
6756;DHT22;3415;51.148;7.014;2023-04-03T02:44:40;0.40;1.00
6756;DHT22;3415;51.148;7.014;2023-04-03T02:47:06;0.30;1.00
6756;DHT22;3415;51.148;7.014;2023-04-03T02:49:33;0.40;1.00
6756;DHT22;3415;51.148;7.014;2023-04-03T02:52:00;0.40;1.00
6756;DHT22;3415;51.148;7.014;2023-04-03T02:54:27;0.30;1.00
6756;DHT22;3415;51.148;7.014;2023-04-03T02:56:56;0.60;1.00
6756;DHT22;3415;51.148;7.014;2023-04-03T02:59:24;0.30;1.00
6756;DHT22;3415;51.148;7.014;2023-04-03T03:01:51;0.40;1.00
6756;DHT22;3415;51.148;7.014;2023-04-03T03:04:18;0.30;1.00
6756;DHT22;3415;51.148;7.014;2023-04-03T03:06:45;0.40;1.00
6756;DHT22;3415;51.148;7.014;2023-04-03T03:09:12;0.30;1.00
6756;DHT22;3415;51.148;7.014;2023-04-03T03:11:39;0.30;1.00
6756;DHT22;3415;51.148;7.014;2023-04-03T03:14:06;0.40;1.00
6756;DHT22;3415;51.148;7.014;2023-04-03T03:16:34;0.40;1.00
6756;DHT22;3415;51.148;7.014;2023-04-03T03:19:01;0.40;1.00
6756;DHT22;3415;51.148;7.014;2023-04-03T03:21:28;0.60;1.00
6756;DHT22;3415;51.148;7.014;2023-04-03T03:23:55;0.70;1.00
6756;DHT22;3415;51.148;7.014;2023-04-03T03:26:22;0.70;1.00
6756;DHT22;3415;51.148;7.014;2023-04-03T03:28:49;0.70;1.00
6756;DHT22;3415;51.148;7.014;2023-04-03T03:31:16;0.70;1.00
6756;DHT22;3415;51.148;7.014;2023-04-03T03:33:44;0.80;1.00
6756;DHT22;3415;51.148;7.014;2023-04-03T03:36:10;0.80;1.00
6756;DHT22;3415;51.148;7.014;2023-04-03T03:38:37;0.80;1.00
6756;DHT22;3415;51.148;7.014;2023-04-03T03:41:04;0.80;1.00
6756;DHT22;3415;51.148;7.014;2023-04-03T03:43:31;0.80;1.00
6756;DHT22;3415;51.148;7.014;2023-04-03T03:45:58;0.80;1.00
6756;DHT22;3415;51.148;7.014;2023-04-03T03:48:25;0.80;1.00
6756;DHT22;3415;51.148;7.014;2023-04-03T03:50:53;0.80;1.00
6756;DHT22;3415;51.148;7.014;2023-04-03T03:53:20;0.90;1.00
6756;DHT22;3415;51.148;7.014;2023-04-03T03:55:47;0.90;1.00
6756;DHT22;3415;51.148;7.014;2023-04-03T03:58:14;0.90;1.00
6756;DHT22;3415;51.148;7.014;2023-04-03T04:00:41;0.90;1.00
6756;DHT22;3415;51.148;7.014;2023-04-03T04:03:07;1.00;1.00
6756;DHT22;3415;51.148;7.014;2023-04-03T04:05:34;0.90;1.00
6756;DHT22;3415;51.148;7.014;2023-04-03T04:08:02;0.70;1.00
6756;DHT22;3415;51.148;7.014;2023-04-03T04:10:29;0.80;1.00
6756;DHT22;3415;51.148;7.014;2023-04-03T04:12:56;0.70;1.00
6756;DHT22;3415;51.148;7.014;2023-04-03T04:15:23;0.70;1.00
6756;DHT22;3415;51.148;7.014;2023-04-03T04:17:51;0.80;1.00
6756;DHT22;3415;51.148;7.014;2023-04-03T04:20:18;0.80;1.00
6756;DHT22;3415;51.148;7.014;2023-04-03T04:22:45;0.70;1.00
6756;DHT22;3415;51.148;7.014;2023-04-03T04:25:13;0.70;1.00
6756;DHT22;3415;51.148;7.014;2023-04-03T04:27:40;0.70;1.00
6756;DHT22;3415;51.148;7.014;2023-04-03T04:30:08;0.70;1.00
6756;DHT22;3415;51.148;7.014;2023-04-03T04:32:35;0.70;1.00
6756;DHT22;3415;51.148;7.014;2023-04-03T04:35:03;0.70;1.00
6756;DHT22;3415;51.148;7.014;2023-04-03T04:37:31;0.70;1.00
6756;DHT22;3415;51.148;7.014;2023-04-03T04:39:58;0.70;1.00
6756;DHT22;3415;51.148;7.014;2023-04-03T04:42:26;0.70;1.00
6756;DHT22;3415;51.148;7.014;2023-04-03T04:44:53;0.70;1.00
6756;DHT22;3415;51.148;7.014;2023-04-03T04:47:20;0.60;1.00
6756;DHT22;3415;51.148;7.014;2023-04-03T04:49:46;0.70;1.00
6756;DHT22;3415;51.148;7.014;2023-04-03T04:52:13;0.70;1.00
6756;DHT22;3415;51.148;7.014;2023-04-03T04:54:40;0.70;1.00
6756;DHT22;3415;51.148;7.014;2023-04-03T04:57:07;0.70;1.00
6756;DHT22;3415;51.148;7.014;2023-04-03T04:59:35;0.70;1.00
6756;DHT22;3415;51.148;7.014;2023-04-03T05:02:02;0.70;1.00
6756;DHT22;3415;51.148;7.014;2023-04-03T05:04:29;0.70;1.00
6756;DHT22;3415;51.148;7.014;2023-04-03T05:06:56;0.70;1.00
6756;DHT22;3415;51.148;7.014;2023-04-03T05:14:17;0.70;1.00
6756;DHT22;3415;51.148;7.014;2023-04-03T05:16:45;0.80;1.00
6756;DHT22;3415;51.148;7.014;2023-04-03T05:19:13;0.70;1.00
6756;DHT22;3415;51.148;7.014;2023-04-03T05:21:40;0.80;1.00
6756;DHT22;3415;51.148;7.014;2023-04-03T05:24:07;0.70;1.00
6756;DHT22;3415;51.148;7.014;2023-04-03T05:26:35;0.80;1.00
6756;DHT22;3415;51.148;7.014;2023-04-03T05:29:02;0.80;1.00
6756;DHT22;3415;51.148;7.014;2023-04-03T05:31:29;0.80;1.00
6756;DHT22;3415;51.148;7.014;2023-04-03T05:33:57;0.80;1.00
6756;DHT22;3415;51.148;7.014;2023-04-03T05:36:24;0.80;1.00
6756;DHT22;3415;51.148;7.014;2023-04-03T05:38:51;0.90;1.00
6756;DHT22;3415;51.148;7.014;2023-04-03T05:41:18;1.00;1.00
6756;DHT22;3415;51.148;7.014;2023-04-03T05:43:46;1.00;1.00
6756;DHT22;3415;51.148;7.014;2023-04-03T05:46:14;1.20;1.00
6756;DHT22;3415;51.148;7.014;2023-04-03T05:48:42;1.50;1.00
6756;DHT22;3415;51.148;7.014;2023-04-03T05:51:14;2.00;1.00
6756;DHT22;3415;51.148;7.014;2023-04-03T05:53:43;2.50;1.00
6756;DHT22;3415;51.148;7.014;2023-04-03T05:56:11;3.00;1.00
6756;DHT22;3415;51.148;7.014;2023-04-03T05:58:38;3.40;1.00
6756;DHT22;3415;51.148;7.014;2023-04-03T06:01:05;3.80;1.00
6756;DHT22;3415;51.148;7.014;2023-04-03T06:03:32;4.00;1.00
6756;DHT22;3415;51.148;7.014;2023-04-03T06:05:59;4.20;1.00
6756;DHT22;3415;51.148;7.014;2023-04-03T06:08:27;4.40;1.00
6756;DHT22;3415;51.148;7.014;2023-04-03T06:10:54;4.50;1.00
6756;DHT22;3415;51.148;7.014;2023-04-03T06:13:21;4.80;1.00
6756;DHT22;3415;51.148;7.014;2023-04-03T06:15:49;5.30;1.00
6756;DHT22;3415;51.148;7.014;2023-04-03T06:18:16;5.70;1.00
6756;DHT22;3415;51.148;7.014;2023-04-03T06:20:42;6.20;1.00
6756;DHT22;3415;51.148;7.014;2023-04-03T06:23:10;6.50;1.00
6756;DHT22;3415;51.148;7.014;2023-04-03T06:25:38;6.50;1.00
6756;DHT22;3415;51.148;7.014;2023-04-03T06:28:06;6.50;1.00
6756;DHT22;3415;51.148;7.014;2023-04-03T06:30:34;6.40;1.00
6756;DHT22;3415;51.148;7.014;2023-04-03T06:33:02;6.40;1.00
6756;DHT22;3415;51.148;7.014;2023-04-03T06:35:28;6.60;1.00
6756;DHT22;3415;51.148;7.014;2023-04-03T06:37:58;6.40;1.00
6756;DHT22;3415;51.148;7.014;2023-04-03T06:40:25;6.80;1.00
6756;DHT22;3415;51.148;7.014;2023-04-03T06:42:54;6.60;1.00
6756;DHT22;3415;51.148;7.014;2023-04-03T06:45:21;6.60;1.00
6756;DHT22;3415;51.148;7.014;2023-04-03T06:47:47;6.70;1.00
6756;DHT22;3415;51.148;7.014;2023-04-03T06:50:14;7.10;1.00
6756;DHT22;3415;51.148;7.014;2023-04-03T06:52:41;7.10;1.00
6756;DHT22;3415;51.148;7.014;2023-04-03T06:55:09;7.20;1.00
6756;DHT22;3415;51.148;7.014;2023-04-03T06:57:36;7.70;1.00
6756;DHT22;3415;51.148;7.014;2023-04-03T07:00:06;7.80;1.00
6756;DHT22;3415;51.148;7.014;2023-04-03T07:02:34;7.90;99.90
6756;DHT22;3415;51.148;7.014;2023-04-03T07:05:01;8.00;99.90
6756;DHT22;3415;51.148;7.014;2023-04-03T07:07:29;8.30;99.90
6756;DHT22;3415;51.148;7.014;2023-04-03T07:09:55;8.20;99.90
6756;DHT22;3415;51.148;7.014;2023-04-03T07:12:22;8.00;99.90
6756;DHT22;3415;51.148;7.014;2023-04-03T07:14:49;8.30;99.90
6756;DHT22;3415;51.148;7.014;2023-04-03T07:17:17;8.40;99.90
6756;DHT22;3415;51.148;7.014;2023-04-03T07:19:44;8.70;99.90
6756;DHT22;3415;51.148;7.014;2023-04-03T07:22:11;9.20;99.90
6756;DHT22;3415;51.148;7.014;2023-04-03T07:24:38;10.20;99.90
6756;DHT22;3415;51.148;7.014;2023-04-03T07:27:05;10.40;99.90
6756;DHT22;3415;51.148;7.014;2023-04-03T07:29:34;10.60;99.90
6756;DHT22;3415;51.148;7.014;2023-04-03T07:32:01;10.50;99.90
6756;DHT22;3415;51.148;7.014;2023-04-03T07:34:29;10.00;99.90
6756;DHT22;3415;51.148;7.014;2023-04-03T07:36:56;9.90;99.90
6756;DHT22;3415;51.148;7.014;2023-04-03T07:39:23;9.80;99.90
6756;DHT22;3415;51.148;7.014;2023-04-03T07:41:50;9.90;99.90
6756;DHT22;3415;51.148;7.014;2023-04-03T07:44:17;9.90;99.90
6756;DHT22;3415;51.148;7.014;2023-04-03T07:46:44;10.90;99.90
6756;DHT22;3415;51.148;7.014;2023-04-03T07:49:10;10.90;99.90
6756;DHT22;3415;51.148;7.014;2023-04-03T07:51:38;10.90;99.90
6756;DHT22;3415;51.148;7.014;2023-04-03T07:54:06;11.10;99.90
6756;DHT22;3415;51.148;7.014;2023-04-03T07:56:33;11.70;99.90
6756;DHT22;3415;51.148;7.014;2023-04-03T07:59:00;12.10;99.90
6756;DHT22;3415;51.148;7.014;2023-04-03T08:01:27;12.10;99.90
6756;DHT22;3415;51.148;7.014;2023-04-03T08:03:54;12.20;99.90
6756;DHT22;3415;51.148;7.014;2023-04-03T08:06:21;12.20;99.90
6756;DHT22;3415;51.148;7.014;2023-04-03T08:08:49;12.50;99.90
6756;DHT22;3415;51.148;7.014;2023-04-03T08:11:17;12.60;99.90
6756;DHT22;3415;51.148;7.014;2023-04-03T08:13:46;12.30;99.90
6756;DHT22;3415;51.148;7.014;2023-04-03T08:16:17;13.00;99.90
6756;DHT22;3415;51.148;7.014;2023-04-03T08:18:45;13.90;99.90
6756;DHT22;3415;51.148;7.014;2023-04-03T08:21:12;14.50;99.90
6756;DHT22;3415;51.148;7.014;2023-04-03T08:23:39;14.70;99.90
6756;DHT22;3415;51.148;7.014;2023-04-03T08:26:12;14.70;99.90
6756;DHT22;3415;51.148;7.014;2023-04-03T08:28:39;13.80;99.90
6756;DHT22;3415;51.148;7.014;2023-04-03T08:31:08;13.30;99.90
6756;DHT22;3415;51.148;7.014;2023-04-03T08:33:37;13.50;99.90
6756;DHT22;3415;51.148;7.014;2023-04-03T08:36:05;14.20;99.90
6756;DHT22;3415;51.148;7.014;2023-04-03T08:38:32;15.10;99.90
6756;DHT22;3415;51.148;7.014;2023-04-03T08:41:02;14.80;99.90
6756;DHT22;3415;51.148;7.014;2023-04-03T08:43:36;14.60;99.90
6756;DHT22;3415;51.148;7.014;2023-04-03T08:46:06;15.80;99.90
6756;DHT22;3415;51.148;7.014;2023-04-03T08:48:40;15.30;99.90
6756;DHT22;3415;51.148;7.014;2023-04-03T08:51:12;14.40;99.90
6756;DHT22;3415;51.148;7.014;2023-04-03T08:53:43;15.90;99.90
6756;DHT22;3415;51.148;7.014;2023-04-03T08:56:12;16.60;99.90
6756;DHT22;3415;51.148;7.014;2023-04-03T08:58:48;15.70;99.90
6756;DHT22;3415;51.148;7.014;2023-04-03T09:01:20;16.20;99.90
6756;DHT22;3415;51.148;7.014;2023-04-03T09:03:47;16.80;99.90
6756;DHT22;3415;51.148;7.014;2023-04-03T09:06:16;16.40;99.90
6756;DHT22;3415;51.148;7.014;2023-04-03T09:08:50;15.90;99.90
6756;DHT22;3415;51.148;7.014;2023-04-03T09:11:22;16.20;99.90
6756;DHT22;3415;51.148;7.014;2023-04-03T09:13:59;16.50;99.90
6756;DHT22;3415;51.148;7.014;2023-04-03T09:16:35;17.20;99.90
6756;DHT22;3415;51.148;7.014;2023-04-03T09:19:12;17.00;99.90
6756;DHT22;3415;51.148;7.014;2023-04-03T09:21:42;16.10;99.90
6756;DHT22;3415;51.148;7.014;2023-04-03T09:24:11;15.40;99.90
6756;DHT22;3415;51.148;7.014;2023-04-03T09:26:43;16.00;99.90
6756;DHT22;3415;51.148;7.014;2023-04-03T09:29:17;17.90;99.90
6756;DHT22;3415;51.148;7.014;2023-04-03T09:31:44;18.40;99.90
6756;DHT22;3415;51.148;7.014;2023-04-03T09:34:18;18.60;99.90
6756;DHT22;3415;51.148;7.014;2023-04-03T09:36:48;16.80;99.90
6756;DHT22;3415;51.148;7.014;2023-04-03T09:39:18;17.10;99.90
6756;DHT22;3415;51.148;7.014;2023-04-03T09:41:56;18.00;99.90
6756;DHT22;3415;51.148;7.014;2023-04-03T09:44:26;18.70;99.90
6756;DHT22;3415;51.148;7.014;2023-04-03T09:46:53;18.50;99.90
6756;DHT22;3415;51.148;7.014;2023-04-03T09:49:20;18.00;99.90
6756;DHT22;3415;51.148;7.014;2023-04-03T09:51:47;18.00;99.90
6756;DHT22;3415;51.148;7.014;2023-04-03T09:54:26;18.10;99.90
6756;DHT22;3415;51.148;7.014;2023-04-03T09:56:59;18.50;99.90
6756;DHT22;3415;51.148;7.014;2023-04-03T09:59:29;17.80;99.90
6756;DHT22;3415;51.148;7.014;2023-04-03T10:01:59;17.20;99.90
6756;DHT22;3415;51.148;7.014;2023-04-03T10:04:37;16.80;99.90
6756;DHT22;3415;51.148;7.014;2023-04-03T10:07:26;17.20;99.90
6756;DHT22;3415;51.148;7.014;2023-04-03T10:09:57;17.40;99.90
6756;DHT22;3415;51.148;7.014;2023-04-03T10:12:24;16.90;99.90
6756;DHT22;3415;51.148;7.014;2023-04-03T10:14:55;16.80;99.90
6756;DHT22;3415;51.148;7.014;2023-04-03T10:17:31;17.40;99.90
6756;DHT22;3415;51.148;7.014;2023-04-03T10:20:10;16.90;99.90
6756;DHT22;3415;51.148;7.014;2023-04-03T10:22:44;16.80;99.90
6756;DHT22;3415;51.148;7.014;2023-04-03T10:25:21;16.90;99.90
6756;DHT22;3415;51.148;7.014;2023-04-03T10:27:55;16.30;99.90
6756;DHT22;3415;51.148;7.014;2023-04-03T10:30:34;17.50;99.90
6756;DHT22;3415;51.148;7.014;2023-04-03T10:33:20;17.60;99.90
6756;DHT22;3415;51.148;7.014;2023-04-03T10:35:58;17.70;99.90
6756;DHT22;3415;51.148;7.014;2023-04-03T10:38:33;18.10;99.90
6756;DHT22;3415;51.148;7.014;2023-04-03T10:41:07;17.80;99.90
6756;DHT22;3415;51.148;7.014;2023-04-03T10:43:44;18.30;99.90
6756;DHT22;3415;51.148;7.014;2023-04-03T10:46:15;17.90;99.90
6756;DHT22;3415;51.148;7.014;2023-04-03T10:48:52;18.10;99.90
6756;DHT22;3415;51.148;7.014;2023-04-03T10:51:27;17.10;99.90
6756;DHT22;3415;51.148;7.014;2023-04-03T10:54:00;16.70;99.90
6756;DHT22;3415;51.148;7.014;2023-04-03T10:56:37;16.60;99.90
6756;DHT22;3415;51.148;7.014;2023-04-03T10:59:15;17.70;99.90
6756;DHT22;3415;51.148;7.014;2023-04-03T11:01:45;18.80;99.90
6756;DHT22;3415;51.148;7.014;2023-04-03T11:04:13;18.20;99.90
6756;DHT22;3415;51.148;7.014;2023-04-03T11:06:46;17.60;99.90
6756;DHT22;3415;51.148;7.014;2023-04-03T11:09:19;17.60;99.90
6756;DHT22;3415;51.148;7.014;2023-04-03T11:11:51;19.10;99.90
6756;DHT22;3415;51.148;7.014;2023-04-03T11:14:24;19.70;99.90
6756;DHT22;3415;51.148;7.014;2023-04-03T11:17:00;20.30;99.90
6756;DHT22;3415;51.148;7.014;2023-04-03T11:19:34;20.20;99.90
6756;DHT22;3415;51.148;7.014;2023-04-03T11:22:08;20.40;99.90
6756;DHT22;3415;51.148;7.014;2023-04-03T11:24:38;20.10;99.90
6756;DHT22;3415;51.148;7.014;2023-04-03T11:27:13;19.30;99.90
6756;DHT22;3415;51.148;7.014;2023-04-03T11:29:44;19.30;99.90
6756;DHT22;3415;51.148;7.014;2023-04-03T11:35:07;19.70;99.90
6756;DHT22;3415;51.148;7.014;2023-04-03T11:37:38;20.30;99.90
6756;DHT22;3415;51.148;7.014;2023-04-03T11:40:07;21.30;99.90
6756;DHT22;3415;51.148;7.014;2023-04-03T11:42:39;21.10;99.90
6756;DHT22;3415;51.148;7.014;2023-04-03T11:45:31;18.80;99.90
6756;DHT22;3415;51.148;7.014;2023-04-03T11:48:01;18.40;99.90
6756;DHT22;3415;51.148;7.014;2023-04-03T11:50:40;19.30;99.90
6756;DHT22;3415;51.148;7.014;2023-04-03T11:53:28;20.20;99.90
6756;DHT22;3415;51.148;7.014;2023-04-03T11:55:59;20.60;99.90
6756;DHT22;3415;51.148;7.014;2023-04-03T11:58:29;19.70;99.90
6756;DHT22;3415;51.148;7.014;2023-04-03T12:01:05;20.60;99.90
6756;DHT22;3415;51.148;7.014;2023-04-03T12:03:57;19.70;99.90
6756;DHT22;3415;51.148;7.014;2023-04-03T12:06:51;21.10;99.90
6756;DHT22;3415;51.148;7.014;2023-04-03T12:09:32;21.50;99.90
6756;DHT22;3415;51.148;7.014;2023-04-03T12:12:01;21.10;99.90
6756;DHT22;3415;51.148;7.014;2023-04-03T12:14:48;18.90;99.90
6756;DHT22;3415;51.148;7.014;2023-04-03T12:17:22;16.40;99.90
6756;DHT22;3415;51.148;7.014;2023-04-03T12:19:51;14.70;99.90
6756;DHT22;3415;51.148;7.014;2023-04-03T12:22:19;13.80;99.90
6756;DHT22;3415;51.148;7.014;2023-04-03T12:24:49;13.20;99.90
6756;DHT22;3415;51.148;7.014;2023-04-03T12:27:28;13.00;99.90
6756;DHT22;3415;51.148;7.014;2023-04-03T12:30:17;12.50;99.90
6756;DHT22;3415;51.148;7.014;2023-04-03T12:33:13;12.00;99.90
6756;DHT22;3415;51.148;7.014;2023-04-03T12:35:51;11.30;99.90
6756;DHT22;3415;51.148;7.014;2023-04-03T12:38:50;11.20;99.90
6756;DHT22;3415;51.148;7.014;2023-04-03T12:41:30;10.80;99.90
6756;DHT22;3415;51.148;7.014;2023-04-03T12:44:30;10.60;99.90
6756;DHT22;3415;51.148;7.014;2023-04-03T12:47:16;10.60;99.90
6756;DHT22;3415;51.148;7.014;2023-04-03T12:49:45;10.70;99.90
6756;DHT22;3415;51.148;7.014;2023-04-03T12:52:19;10.60;99.90
6756;DHT22;3415;51.148;7.014;2023-04-03T12:54:46;10.50;99.90
6756;DHT22;3415;51.148;7.014;2023-04-03T12:57:17;10.30;99.90
6756;DHT22;3415;51.148;7.014;2023-04-03T12:59:45;10.30;99.90
6756;DHT22;3415;51.148;7.014;2023-04-03T13:02:25;10.40;99.90
6756;DHT22;3415;51.148;7.014;2023-04-03T13:04:53;10.40;99.90
6756;DHT22;3415;51.148;7.014;2023-04-03T13:07:25;10.50;99.90
6756;DHT22;3415;51.148;7.014;2023-04-03T13:10:04;10.60;99.90
6756;DHT22;3415;51.148;7.014;2023-04-03T13:12:46;10.50;99.90
6756;DHT22;3415;51.148;7.014;2023-04-03T13:15:17;10.30;99.90
6756;DHT22;3415;51.148;7.014;2023-04-03T13:17:46;10.30;99.90
6756;DHT22;3415;51.148;7.014;2023-04-03T13:20:20;10.50;99.90
6756;DHT22;3415;51.148;7.014;2023-04-03T13:22:54;10.30;99.90
6756;DHT22;3415;51.148;7.014;2023-04-03T13:25:24;10.30;99.90
6756;DHT22;3415;51.148;7.014;2023-04-03T13:27:53;10.20;99.90
6756;DHT22;3415;51.148;7.014;2023-04-03T13:30:24;10.00;99.90
6756;DHT22;3415;51.148;7.014;2023-04-03T13:32:54;10.00;99.90
6756;DHT22;3415;51.148;7.014;2023-04-03T13:35:33;10.00;99.90
6756;DHT22;3415;51.148;7.014;2023-04-03T13:38:04;10.10;99.90
6756;DHT22;3415;51.148;7.014;2023-04-03T13:40:31;10.20;99.90
6756;DHT22;3415;51.148;7.014;2023-04-03T13:43:00;9.90;99.90
6756;DHT22;3415;51.148;7.014;2023-04-03T13:45:29;9.90;99.90
6756;DHT22;3415;51.148;7.014;2023-04-03T13:48:11;10.00;99.90
6756;DHT22;3415;51.148;7.014;2023-04-03T13:51:00;10.10;99.90
6756;DHT22;3415;51.148;7.014;2023-04-03T13:53:28;10.20;99.90
6756;DHT22;3415;51.148;7.014;2023-04-03T13:56:00;10.00;99.90
6756;DHT22;3415;51.148;7.014;2023-04-03T13:58:33;9.90;99.90
6756;DHT22;3415;51.148;7.014;2023-04-03T14:01:06;9.90;99.90
6756;DHT22;3415;51.148;7.014;2023-04-03T14:03:42;10.10;99.90
6756;DHT22;3415;51.148;7.014;2023-04-03T14:06:11;10.30;99.90
6756;DHT22;3415;51.148;7.014;2023-04-03T14:08:39;10.40;99.90
6756;DHT22;3415;51.148;7.014;2023-04-03T14:11:11;10.30;99.90
6756;DHT22;3415;51.148;7.014;2023-04-03T14:13:39;10.10;99.90
6756;DHT22;3415;51.148;7.014;2023-04-03T14:16:06;10.00;99.90
6756;DHT22;3415;51.148;7.014;2023-04-03T14:18:34;10.00;99.90
6756;DHT22;3415;51.148;7.014;2023-04-03T14:21:02;10.10;99.90
6756;DHT22;3415;51.148;7.014;2023-04-03T14:23:29;10.10;99.90
6756;DHT22;3415;51.148;7.014;2023-04-03T14:25:56;10.30;99.90
6756;DHT22;3415;51.148;7.014;2023-04-03T14:28:23;10.30;99.90
6756;DHT22;3415;51.148;7.014;2023-04-03T14:30:51;10.40;99.90
6756;DHT22;3415;51.148;7.014;2023-04-03T14:33:20;10.40;99.90
6756;DHT22;3415;51.148;7.014;2023-04-03T14:35:49;10.40;99.90
6756;DHT22;3415;51.148;7.014;2023-04-03T14:38:22;10.20;99.90
6756;DHT22;3415;51.148;7.014;2023-04-03T14:40:50;10.00;99.90
6756;DHT22;3415;51.148;7.014;2023-04-03T14:43:17;10.00;99.90
6756;DHT22;3415;51.148;7.014;2023-04-03T14:45:44;10.10;99.90
6756;DHT22;3415;51.148;7.014;2023-04-03T14:48:17;10.10;99.90
6756;DHT22;3415;51.148;7.014;2023-04-03T14:50:44;10.10;99.90
6756;DHT22;3415;51.148;7.014;2023-04-03T14:53:14;10.00;99.90
6756;DHT22;3415;51.148;7.014;2023-04-03T14:55:43;10.00;99.90
6756;DHT22;3415;51.148;7.014;2023-04-03T14:58:13;9.90;99.90
6756;DHT22;3415;51.148;7.014;2023-04-03T15:00:40;9.80;99.90
6756;DHT22;3415;51.148;7.014;2023-04-03T15:03:13;9.70;99.90
6756;DHT22;3415;51.148;7.014;2023-04-03T15:05:42;9.70;99.90
6756;DHT22;3415;51.148;7.014;2023-04-03T15:08:19;9.60;99.90
6756;DHT22;3415;51.148;7.014;2023-04-03T15:10:47;9.70;99.90
6756;DHT22;3415;51.148;7.014;2023-04-03T15:13:14;9.80;99.90
6756;DHT22;3415;51.148;7.014;2023-04-03T15:15:42;9.70;99.90
6756;DHT22;3415;51.148;7.014;2023-04-03T15:18:15;9.80;99.90
6756;DHT22;3415;51.148;7.014;2023-04-03T15:20:44;9.80;99.90
6756;DHT22;3415;51.148;7.014;2023-04-03T15:23:13;9.70;99.90
6756;DHT22;3415;51.148;7.014;2023-04-03T15:25:41;9.80;99.90
6756;DHT22;3415;51.148;7.014;2023-04-03T15:28:09;9.70;99.90
6756;DHT22;3415;51.148;7.014;2023-04-03T15:30:40;9.70;99.90
6756;DHT22;3415;51.148;7.014;2023-04-03T15:33:08;9.70;99.90
6756;DHT22;3415;51.148;7.014;2023-04-03T15:35:36;9.70;99.90
6756;DHT22;3415;51.148;7.014;2023-04-03T15:38:04;9.60;99.90
6756;DHT22;3415;51.148;7.014;2023-04-03T15:40:33;9.60;99.90
6756;DHT22;3415;51.148;7.014;2023-04-03T15:43:00;9.50;99.90
6756;DHT22;3415;51.148;7.014;2023-04-03T15:45:29;9.50;99.90
6756;DHT22;3415;51.148;7.014;2023-04-03T15:47:57;9.70;99.90
6756;DHT22;3415;51.148;7.014;2023-04-03T15:50:24;9.80;99.90
6756;DHT22;3415;51.148;7.014;2023-04-03T15:52:52;9.80;99.90
6756;DHT22;3415;51.148;7.014;2023-04-03T15:55:21;9.60;99.90
6756;DHT22;3415;51.148;7.014;2023-04-03T15:57:51;9.60;99.90
6756;DHT22;3415;51.148;7.014;2023-04-03T16:00:18;9.60;99.90
6756;DHT22;3415;51.148;7.014;2023-04-03T16:02:46;9.50;99.90
6756;DHT22;3415;51.148;7.014;2023-04-03T16:05:15;9.50;99.90
6756;DHT22;3415;51.148;7.014;2023-04-03T16:07:43;9.40;99.90
6756;DHT22;3415;51.148;7.014;2023-04-03T16:10:12;9.40;99.90
6756;DHT22;3415;51.148;7.014;2023-04-03T16:12:39;9.40;99.90
6756;DHT22;3415;51.148;7.014;2023-04-03T16:15:08;9.40;99.90
6756;DHT22;3415;51.148;7.014;2023-04-03T16:17:37;9.40;99.90
6756;DHT22;3415;51.148;7.014;2023-04-03T16:20:06;9.30;99.90
6756;DHT22;3415;51.148;7.014;2023-04-03T16:22:34;9.30;99.90
6756;DHT22;3415;51.148;7.014;2023-04-03T16:25:01;9.20;99.90
6756;DHT22;3415;51.148;7.014;2023-04-03T16:27:27;9.20;99.90
6756;DHT22;3415;51.148;7.014;2023-04-03T16:29:56;9.10;99.90
6756;DHT22;3415;51.148;7.014;2023-04-03T16:32:26;9.10;99.90
6756;DHT22;3415;51.148;7.014;2023-04-03T16:34:54;9.10;99.90
6756;DHT22;3415;51.148;7.014;2023-04-03T16:37:21;9.10;99.90
6756;DHT22;3415;51.148;7.014;2023-04-03T16:39:47;9.00;99.90
6756;DHT22;3415;51.148;7.014;2023-04-03T16:42:14;8.90;99.90
6756;DHT22;3415;51.148;7.014;2023-04-03T16:44:42;8.90;99.90
6756;DHT22;3415;51.148;7.014;2023-04-03T16:47:09;8.80;99.90
6756;DHT22;3415;51.148;7.014;2023-04-03T16:49:39;8.80;99.90